Startpagina
METAR-TAF:

METAR-TAF

Vliegvelden :

Le Touquet, Frankrijk

breedte: 50-30-53N, lengte: 001-37-39E, hoogte: 6 m

Actueel weer

Dit bericht is 35 minuten geleden gemaakt, om 13:30 UTC
Wind 8 kt uit het oosten, variërend tussen het noordoosten en het zuidoosten
Temperatuur 23°C
Vochtigheid 41%
Druk 1023 hPa
Zicht 10 km of meer
geen wolken onder 1500 m en geen cumulonimbus

METAR: LFAT 101330Z AUTO 10008KT 040V140 CAVOK 23/09 Q1023

Tijdstip: 16:05 (14:05 UTC)


TAF: ontbreekt

Waarnemingen en weersverwachtingen van meer dan 4000 vliegvelden (METAR en TAF).

De beschikbare stations zijn de gele en rode punten op de kaart.

Ga met uw muis naar het station om de naam te zien.

Klik dan om waarnemingen en weersverwachtingen te zien.

kaart wijzigen: klik op de groene knoppen met een zwart kruis om in te zoomen, op de groene knop met een streepje om uit te zoomen of op de groene pijlen voor aangrenzende kaarten.


METAR-TAF: